createdAt,value
2018-03-04T00:00:10.428Z,97305.82
2018-03-04T00:02:38.756Z,97296.55
2018-03-04T00:05:07.058Z,97301.25
2018-03-04T00:07:35.393Z,97304.63
2018-03-04T00:10:03.653Z,97305.95
2018-03-04T00:12:31.960Z,97302.70
2018-03-04T00:15:00.748Z,97301.11
2018-03-04T00:17:29.102Z,97308.97
2018-03-04T00:19:57.385Z,97312.23
2018-03-04T00:22:37.392Z,97311.84
2018-03-04T00:25:05.744Z,97312.23
2018-03-04T00:27:34.040Z,97318.63
2018-03-04T00:30:02.371Z,97319.53
2018-03-04T00:32:30.717Z,97326.86
2018-03-04T00:34:58.988Z,97325.28
2018-03-04T00:37:27.293Z,97337.45
2018-03-04T00:39:55.588Z,97341.52
2018-03-04T00:42:23.928Z,97338.09
2018-03-04T00:44:52.241Z,97331.84
2018-03-04T00:47:20.500Z,97331.30
2018-03-04T00:49:48.836Z,97329.46
2018-03-04T00:52:17.135Z,97335.86
2018-03-04T00:54:45.621Z,97343.06
2018-03-04T00:57:14.185Z,97347.52
2018-03-04T00:59:42.569Z,97344.23
2018-03-04T01:02:11.155Z,97349.34
2018-03-04T01:04:39.452Z,97357.70
2018-03-04T01:07:07.723Z,97359.38
2018-03-04T01:09:36.074Z,97352.73
2018-03-04T01:12:04.896Z,97368.00
2018-03-04T01:14:33.184Z,97365.51
2018-03-04T01:17:01.466Z,97355.56
2018-03-04T01:19:29.799Z,97346.67
2018-03-04T01:21:58.080Z,97348.23
2018-03-04T01:24:26.380Z,97354.13
2018-03-04T01:26:54.661Z,97358.59
2018-03-04T01:29:22.981Z,97349.81
2018-03-04T01:31:51.272Z,97354.03
2018-03-04T01:34:19.575Z,97342.27
2018-03-04T01:36:47.924Z,97353.48
2018-03-04T01:39:16.271Z,97355.86
2018-03-04T01:41:44.727Z,97349.31
2018-03-04T01:44:13.006Z,97348.16
2018-03-04T01:46:41.332Z,97339.40
2018-03-04T01:49:09.620Z,97340.70
2018-03-04T01:51:49.797Z,97344.74
2018-03-04T01:54:18.051Z,97352.08
2018-03-04T01:56:46.356Z,97349.07
2018-03-04T01:59:14.628Z,97353.12
2018-03-04T02:01:42.920Z,97354.17
2018-03-04T02:04:11.190Z,97349.31
2018-03-04T02:06:39.512Z,97352.70
2018-03-04T02:09:07.771Z,97346.43
2018-03-04T02:11:36.083Z,97338.22
2018-03-04T02:14:05.248Z,97337.95
2018-03-04T02:16:33.595Z,97333.11
2018-03-04T02:19:01.868Z,97326.05
2018-03-04T02:21:30.172Z,97324.23
2018-03-04T02:23:58.464Z,97318.60
2018-03-04T02:26:27.397Z,97320.80
2018-03-04T02:28:55.672Z,97311.00
2018-03-04T02:31:24.002Z,97300.90
2018-03-04T02:33:52.270Z,97306.79
2018-03-04T02:36:20.580Z,97319.89
2018-03-04T02:38:48.858Z,97304.29
2018-03-04T02:41:17.157Z,97308.38
2018-03-04T02:43:45.488Z,97299.91
2018-03-04T02:46:13.840Z,97296.77
2018-03-04T02:48:42.142Z,97289.05
2018-03-04T02:51:10.420Z,97289.80
2018-03-04T02:53:38.733Z,97282.63
2018-03-04T02:56:07.124Z,97281.72
2018-03-04T02:58:35.443Z,97285.52
2018-03-04T03:01:03.722Z,97278.89
2018-03-04T03:03:32.420Z,97289.73
2018-03-04T03:06:00.701Z,97297.06
2018-03-04T03:08:28.968Z,97296.02
2018-03-04T03:10:57.256Z,97300.05
2018-03-04T03:13:25.559Z,97301.48
2018-03-04T03:15:53.830Z,97304.77
2018-03-04T03:18:22.129Z,97300.05
2018-03-04T03:20:50.431Z,97299.14
2018-03-04T03:23:18.721Z,97292.73
2018-03-04T03:25:47.025Z,97282.02
2018-03-04T03:28:15.351Z,97282.02
2018-03-04T03:30:43.619Z,97285.03
2018-03-04T03:33:11.925Z,97282.94
2018-03-04T03:35:40.613Z,97276.52
2018-03-04T03:38:08.929Z,97271.69
2018-03-04T03:40:37.217Z,97257.03
2018-03-04T03:43:05.763Z,97255.09
2018-03-04T03:45:34.859Z,97255.97
2018-03-04T03:48:03.756Z,97259.25
2018-03-04T03:50:32.068Z,97257.70
2018-03-04T03:53:00.365Z,97264.87
2018-03-04T03:55:28.725Z,97266.34
2018-03-04T03:57:57.499Z,97262.69
2018-03-04T04:00:25.892Z,97275.21
2018-03-04T04:02:54.180Z,97280.66
2018-03-04T04:05:22.528Z,97279.77
2018-03-04T04:07:50.832Z,97278.86
2018-03-04T04:10:19.130Z,97274.30
2018-03-04T04:12:47.412Z,97269.22
2018-03-04T04:15:15.723Z,97274.69
2018-03-04T04:17:44.010Z,97269.09
2018-03-04T04:20:12.311Z,97268.45
2018-03-04T04:22:41.310Z,97272.64
2018-03-04T04:25:09.772Z,97276.41
2018-03-04T04:27:38.043Z,97277.06
2018-03-04T04:30:06.404Z,97280.59
2018-03-04T04:32:34.680Z,97281.89
2018-03-04T04:35:02.979Z,97284.63
2018-03-04T04:37:31.295Z,97279.10
2018-03-04T04:39:59.622Z,97281.77
2018-03-04T04:42:27.932Z,97284.27
2018-03-04T04:44:56.243Z,97287.39
2018-03-04T04:47:24.558Z,97281.80
2018-03-04T04:49:52.828Z,97281.78
2018-03-04T04:52:21.177Z,97275.25
2018-03-04T04:54:49.475Z,97281.00
2018-03-04T04:57:17.770Z,97277.72
2018-03-04T04:59:46.047Z,97278.63
2018-03-04T05:02:14.334Z,97269.12
2018-03-04T05:04:43.216Z,97271.34
2018-03-04T05:07:11.529Z,97273.28
2018-03-04T05:09:39.785Z,97275.89
2018-03-04T05:12:08.387Z,97269.91
2018-03-04T05:14:36.667Z,97269.50
2018-03-04T05:17:05.766Z,97274.33
2018-03-04T05:19:34.048Z,97280.62
2018-03-04T05:22:02.369Z,97277.22
2018-03-04T05:24:30.827Z,97273.81
2018-03-04T05:26:59.280Z,97267.43
2018-03-04T05:29:27.554Z,97258.14
2018-03-04T05:31:55.877Z,97262.98
2018-03-04T05:34:24.159Z,97257.50
2018-03-04T05:36:52.463Z,97264.81
2018-03-04T05:39:20.755Z,97255.67
2018-03-04T05:41:49.872Z,97256.06
2018-03-04T05:44:18.194Z,97249.39
2018-03-04T05:46:46.481Z,97248.72
2018-03-04T05:49:15.373Z,97247.81
2018-03-04T05:51:43.672Z,97235.42
2018-03-04T05:54:11.980Z,97228.11
2018-03-04T05:56:40.254Z,97230.45
2018-03-04T05:59:08.547Z,97220.92
2018-03-04T06:01:36.825Z,97221.70
2018-03-04T06:04:05.383Z,97217.13
2018-03-04T06:06:33.656Z,97227.84
2018-03-04T06:09:02.349Z,97243.51
2018-03-04T06:11:31.489Z,97246.53
2018-03-04T06:13:59.780Z,97242.59
2018-03-04T06:16:28.053Z,97243.24
2018-03-04T06:18:56.357Z,97253.00
2018-03-04T06:21:24.623Z,97253.94
2018-03-04T06:23:53.110Z,97257.06
2018-03-04T06:26:21.375Z,97263.86
2018-03-04T06:28:49.682Z,97265.96
2018-03-04T06:31:17.967Z,97260.06
2018-03-04T06:33:46.271Z,97261.91
2018-03-04T06:36:14.565Z,97254.73
2018-03-04T06:38:42.900Z,97259.82
2018-03-04T06:41:11.211Z,97253.02
2018-03-04T06:43:39.499Z,97248.81
2018-03-04T06:46:07.860Z,97252.62
2018-03-04T06:48:36.189Z,97256.28
2018-03-04T06:51:04.711Z,97242.84
2018-03-04T06:53:32.999Z,97242.08
2018-03-04T06:56:01.360Z,97245.31
2018-03-04T06:58:29.661Z,97238.16
2018-03-04T07:00:57.972Z,97250.42
2018-03-04T07:03:26.244Z,97245.86
2018-03-04T07:05:54.542Z,97259.70
2018-03-04T07:08:22.804Z,97261.14
2018-03-04T07:10:51.136Z,97268.85
2018-03-04T07:13:19.415Z,97290.36
2018-03-04T07:15:47.753Z,97258.48
2018-03-04T07:18:16.031Z,97265.67
2018-03-04T07:20:44.335Z,97263.19
2018-03-04T07:23:12.627Z,97271.17
2018-03-04T07:25:40.925Z,97263.47
2018-03-04T07:28:09.187Z,97261.52
2018-03-04T07:30:37.505Z,97255.41
2018-03-04T07:33:06.003Z,97247.44
2018-03-04T07:35:34.320Z,97247.43
2018-03-04T07:38:02.595Z,97236.46
2018-03-04T07:40:30.904Z,97236.31
2018-03-04T07:42:59.220Z,97234.25
2018-03-04T07:45:27.499Z,97211.90
2018-03-04T07:47:55.807Z,97237.23
2018-03-04T07:50:24.083Z,97233.19
2018-03-04T07:52:52.394Z,97236.84
2018-03-04T07:55:21.141Z,97233.33
2018-03-04T07:57:49.436Z,97243.52
2018-03-04T08:00:17.720Z,97239.08
2018-03-04T08:02:46.129Z,97244.94
2018-03-04T08:05:15.053Z,97254.71
2018-03-04T08:07:43.352Z,97248.79
2018-03-04T08:10:11.644Z,97256.08
2018-03-04T08:12:39.945Z,97253.42
2018-03-04T08:15:08.228Z,97248.00
2018-03-04T08:17:36.551Z,97250.17
2018-03-04T08:20:04.827Z,97248.70
2018-03-04T08:22:33.160Z,97248.00
2018-03-04T08:28:17.740Z,97242.20
2018-03-04T08:30:47.020Z,97241.86
2018-03-04T08:33:15.324Z,97241.80
2018-03-04T08:35:43.629Z,97222.48
2018-03-04T08:38:12.173Z,97231.22
2018-03-04T08:40:40.457Z,97222.56
2018-03-04T08:43:08.751Z,97226.51
2018-03-04T08:45:37.155Z,97218.56
2018-03-04T08:48:05.501Z,97220.39
2018-03-04T08:50:33.816Z,97216.11
2018-03-04T08:53:02.447Z,97215.43
2018-03-04T08:55:30.759Z,97218.80
2018-03-04T08:57:59.033Z,97220.46
2018-03-04T09:00:27.367Z,97221.17
2018-03-04T09:02:55.639Z,97219.52
2018-03-04T09:05:23.962Z,97216.22
2018-03-04T09:07:52.299Z,97214.98
2018-03-04T09:10:20.612Z,97219.19
2018-03-04T09:12:48.894Z,97212.47
2018-03-04T09:15:17.183Z,97209.11
2018-03-04T09:17:45.484Z,97201.77
2018-03-04T09:20:13.780Z,97203.52
2018-03-04T09:22:42.059Z,97199.79
2018-03-04T09:25:10.371Z,97193.61
2018-03-04T09:27:38.684Z,97186.61
2018-03-04T09:30:07.031Z,97179.59
2018-03-04T09:32:35.329Z,97179.93
2018-03-04T09:35:03.743Z,97179.38
2018-03-04T09:37:32.057Z,97175.05
2018-03-04T09:40:00.344Z,97173.72
2018-03-04T09:42:28.637Z,97165.63
2018-03-04T09:44:56.956Z,97175.50
2018-03-04T09:47:25.268Z,97183.39
2018-03-04T09:49:53.583Z,97191.22
2018-03-04T09:52:21.975Z,97191.39
2018-03-04T09:54:50.209Z,97183.85
2018-03-04T09:57:18.501Z,97185.48
2018-03-04T09:59:46.806Z,97181.92
2018-03-04T10:02:15.107Z,97189.41
2018-03-04T10:04:43.381Z,97185.30
2018-03-04T10:07:11.739Z,97170.55
2018-03-04T10:09:40.006Z,97180.70
2018-03-04T10:12:08.324Z,97172.70
2018-03-04T10:14:36.587Z,97169.87
2018-03-04T10:17:05.701Z,97172.41
2018-03-04T10:19:34.883Z,97174.86
2018-03-04T10:22:04.243Z,97172.84
2018-03-04T10:24:32.508Z,97176.22
2018-03-04T10:27:00.868Z,97177.23
2018-03-04T10:29:29.146Z,97177.55
2018-03-04T10:31:57.439Z,97166.75
2018-03-04T10:34:26.376Z,97165.43
2018-03-04T10:36:54.655Z,97139.66
2018-03-04T10:39:22.949Z,97163.88
2018-03-04T10:41:51.304Z,97165.18
2018-03-04T10:44:19.561Z,97164.41
2018-03-04T10:46:48.348Z,97169.19
2018-03-04T10:49:16.620Z,97162.65
2018-03-04T10:51:44.917Z,97166.02
2018-03-04T10:54:13.253Z,97167.29
2018-03-04T10:56:41.549Z,97163.74
2018-03-04T10:59:09.953Z,97170.72
2018-03-04T11:01:44.681Z,97171.25
2018-03-04T11:04:12.972Z,97167.14
2018-03-04T11:06:41.262Z,97174.47
2018-03-04T11:09:09.792Z,97174.31
2018-03-04T11:11:38.902Z,97165.89
2018-03-04T11:14:07.225Z,97163.69
2018-03-04T11:16:35.512Z,97164.52
2018-03-04T11:19:04.584Z,97158.45
2018-03-04T11:21:32.897Z,97154.80
2018-03-04T11:24:01.196Z,97140.05
2018-03-04T11:26:29.495Z,97148.66
2018-03-04T11:28:57.921Z,97147.91
2018-03-04T11:31:26.183Z,97139.53
2018-03-04T11:33:54.481Z,97129.34
2018-03-04T11:36:22.752Z,97125.53
2018-03-04T11:38:51.104Z,97127.33
2018-03-04T11:41:19.436Z,97123.91
2018-03-04T11:43:47.749Z,97118.80
2018-03-04T11:46:16.056Z,97114.20
2018-03-04T11:48:44.341Z,97104.95
2018-03-04T11:51:12.647Z,97100.09
2018-03-04T11:53:40.944Z,97096.73
2018-03-04T11:56:09.228Z,97091.05
2018-03-04T11:58:37.550Z,97086.78
2018-03-04T12:01:06.585Z,97078.01
2018-03-04T12:03:34.892Z,97079.16
2018-03-04T12:06:03.193Z,97060.25
2018-03-04T12:08:31.479Z,97057.00
2018-03-04T12:10:59.785Z,97052.83
2018-03-04T12:13:28.071Z,97051.67
2018-03-04T12:15:56.362Z,97048.72
2018-03-04T12:18:24.660Z,97045.88
2018-03-04T12:20:53.811Z,97042.70
2018-03-04T12:23:22.130Z,97037.25
2018-03-04T12:25:50.467Z,97026.15
2018-03-04T12:28:18.774Z,97025.12
2018-03-04T12:30:47.127Z,97013.42
2018-03-04T12:33:15.412Z,97006.60
2018-03-04T12:35:43.761Z,97006.16
2018-03-04T12:38:12.312Z,96999.46
2018-03-04T12:40:41.539Z,96984.39
2018-03-04T12:43:09.866Z,96977.02
2018-03-04T12:45:38.148Z,96958.31
2018-03-04T12:48:06.469Z,96967.58
2018-03-04T12:50:34.756Z,96961.81
2018-03-04T12:53:03.064Z,96957.37
2018-03-04T12:55:31.394Z,96961.92
2018-03-04T12:57:59.678Z,96957.45
2018-03-04T13:00:27.965Z,96955.31
2018-03-04T13:02:56.259Z,96951.15
2018-03-04T13:05:24.595Z,96952.87
2018-03-04T13:07:52.878Z,96960.66
2018-03-04T13:10:21.157Z,96961.97
2018-03-04T13:12:49.528Z,96959.00
2018-03-04T13:15:18.727Z,96960.84
2018-03-04T13:17:47.051Z,96959.41
2018-03-04T13:20:15.441Z,96950.55
2018-03-04T13:22:46.318Z,96946.04
2018-03-04T13:25:14.644Z,96949.53
2018-03-04T13:27:42.980Z,96942.30
2018-03-04T13:30:11.304Z,96947.59
2018-03-04T13:32:40.582Z,96937.45
2018-03-04T13:35:08.850Z,96931.46
2018-03-04T13:37:37.174Z,96938.64
2018-03-04T13:40:05.455Z,96941.78
2018-03-04T13:42:33.759Z,96944.99
2018-03-04T13:45:02.016Z,96937.92
2018-03-04T13:47:30.293Z,96932.47
2018-03-04T13:49:58.576Z,96937.19
2018-03-04T13:52:26.848Z,96933.33
2018-03-04T13:54:55.135Z,96927.12
2018-03-04T13:57:23.401Z,96921.81
2018-03-04T13:59:51.716Z,96914.84
2018-03-04T14:02:19.963Z,96915.25
2018-03-04T14:04:48.244Z,96908.33
2018-03-04T14:07:16.558Z,96900.53
2018-03-04T14:09:44.881Z,96895.20
2018-03-04T14:12:13.324Z,96888.48
2018-03-04T14:14:41.623Z,96894.81
2018-03-04T14:17:09.910Z,96885.73
2018-03-04T14:19:38.217Z,96884.88
2018-03-04T14:22:06.497Z,96881.38
2018-03-04T14:24:34.787Z,96880.95
2018-03-04T14:27:03.392Z,96889.36
2018-03-04T14:29:31.719Z,96837.28
2018-03-04T14:32:00.151Z,96877.92
2018-03-04T14:34:28.454Z,96879.41
2018-03-04T14:36:56.824Z,96885.48
2018-03-04T14:39:25.753Z,96881.55
2018-03-04T14:41:53.972Z,96880.07
2018-03-04T14:44:22.295Z,96886.44
2018-03-04T14:46:50.611Z,96889.66
2018-03-04T14:49:18.943Z,96890.31
2018-03-04T14:51:47.263Z,96891.17
2018-03-04T14:54:15.576Z,96879.45
2018-03-04T14:56:43.888Z,96864.33
2018-03-04T14:59:12.234Z,96858.73
2018-03-04T15:01:40.553Z,96851.81
2018-03-04T15:04:08.844Z,96851.96
2018-03-04T15:06:37.191Z,96862.69
2018-03-04T15:09:05.499Z,96858.82
2018-03-04T15:11:33.854Z,96863.24
2018-03-04T15:14:02.197Z,96861.04
2018-03-04T15:16:30.537Z,96849.40
2018-03-04T15:18:58.866Z,96845.70
2018-03-04T15:21:27.197Z,96843.91
2018-03-04T15:23:55.689Z,96849.30
2018-03-04T15:26:23.969Z,96838.36
2018-03-04T15:28:52.269Z,96821.67
2018-03-04T15:31:20.608Z,96801.56
2018-03-04T15:33:48.875Z,96812.98
2018-03-04T15:36:17.251Z,96813.05
2018-03-04T15:38:45.531Z,96815.63
2018-03-04T15:41:13.856Z,96820.27
2018-03-04T15:43:42.213Z,96819.72
2018-03-04T15:46:10.544Z,96823.40
2018-03-04T15:48:38.849Z,96820.49
2018-03-04T15:51:07.139Z,96825.28
2018-03-04T15:53:35.443Z,96824.97
2018-03-04T15:56:04.948Z,96833.31
2018-03-04T15:58:33.378Z,96838.91
2018-03-04T16:01:01.654Z,96839.83
2018-03-04T16:03:30.000Z,96831.58
2018-03-04T16:05:58.348Z,96831.07
2018-03-04T16:08:26.696Z,96828.52
2018-03-04T16:10:54.985Z,96832.09
2018-03-04T16:13:23.361Z,96830.80
2018-03-04T16:15:51.654Z,96812.33
2018-03-04T16:18:19.990Z,96821.06
2018-03-04T16:20:48.288Z,96819.34
2018-03-04T16:23:16.613Z,96811.89
2018-03-04T16:25:44.918Z,96808.47
2018-03-04T16:28:13.226Z,96798.58
2018-03-04T16:30:41.548Z,96795.66
2018-03-04T16:33:09.896Z,96806.00
2018-03-04T16:35:38.235Z,96809.47
2018-03-04T16:38:06.632Z,96809.38
2018-03-04T16:40:35.756Z,96808.58
2018-03-04T16:43:04.777Z,96804.38
2018-03-04T16:45:33.688Z,96801.77
2018-03-04T16:48:01.997Z,96793.50
2018-03-04T16:50:30.316Z,96803.23
2018-03-04T16:52:58.677Z,96798.97
2018-03-04T16:55:26.975Z,96792.51
2018-03-04T16:57:55.288Z,96802.08
2018-03-04T17:00:23.624Z,96806.33
2018-03-04T17:02:51.919Z,96805.47
2018-03-04T17:05:20.238Z,96805.08
2018-03-04T17:07:48.522Z,96814.67
2018-03-04T17:10:16.812Z,96806.64
2018-03-04T17:12:45.087Z,96815.48
2018-03-04T17:15:13.405Z,96807.69
2018-03-04T17:17:41.696Z,96819.12
2018-03-04T17:20:10.008Z,96819.44
2018-03-04T17:22:38.293Z,96823.32
2018-03-04T17:25:06.653Z,96829.42
2018-03-04T17:27:34.953Z,96843.08
2018-03-04T17:30:03.268Z,96845.80
2018-03-04T17:32:31.586Z,96841.31
2018-03-04T17:34:59.894Z,96832.41
2018-03-04T17:37:28.215Z,96831.88
2018-03-04T17:39:56.515Z,96841.50
2018-03-04T17:42:24.815Z,96842.01
2018-03-04T17:44:53.172Z,96824.22
2018-03-04T17:47:21.448Z,96805.19
2018-03-04T17:49:49.756Z,96806.34
2018-03-04T17:52:18.166Z,96797.61
2018-03-04T17:54:46.461Z,96803.25
2018-03-04T17:57:14.768Z,96797.29
2018-03-04T17:59:43.065Z,96796.48
2018-03-04T18:02:11.368Z,96793.38
2018-03-04T18:04:39.688Z,96790.20
2018-03-04T18:07:07.995Z,96789.19
2018-03-04T18:09:36.312Z,96785.61
2018-03-04T18:12:04.601Z,96781.97
2018-03-04T18:14:32.920Z,96783.66
2018-03-04T18:17:01.240Z,96781.56
2018-03-04T18:19:29.543Z,96779.20
2018-03-04T18:21:57.860Z,96776.45
2018-03-04T18:24:26.161Z,96784.16
2018-03-04T18:26:54.450Z,96784.39
2018-03-04T18:29:22.809Z,96788.50
2018-03-04T18:31:51.105Z,96784.58
2018-03-04T18:34:19.492Z,96787.38
2018-03-04T18:36:47.753Z,96793.20
2018-03-04T18:39:16.014Z,96797.17
2018-03-04T18:41:44.313Z,96806.39
2018-03-04T18:44:12.595Z,96812.25
2018-03-04T18:46:40.919Z,96808.45
2018-03-04T18:49:09.213Z,96823.92
2018-03-04T18:51:37.509Z,96819.81
2018-03-04T18:54:05.825Z,96811.10
2018-03-04T18:56:34.933Z,96830.36
2018-03-04T18:59:03.329Z,96831.58
2018-03-04T19:01:31.599Z,96836.80
2018-03-04T19:03:59.897Z,96840.93
2018-03-04T19:06:28.183Z,96834.95
2018-03-04T19:08:56.518Z,96836.95
2018-03-04T19:11:24.824Z,96846.67
2018-03-04T19:13:53.128Z,96842.01
2018-03-04T19:16:21.405Z,96847.14
2018-03-04T19:18:49.711Z,96845.16
2018-03-04T19:21:18.003Z,96850.16
2018-03-04T19:23:46.503Z,96854.08
2018-03-04T19:26:14.800Z,96854.55
2018-03-04T19:28:43.141Z,96858.62
2018-03-04T19:31:11.427Z,96845.72
2018-03-04T19:33:39.728Z,96847.61
2018-03-04T19:36:08.003Z,96863.33
2018-03-04T19:38:37.104Z,96864.18
2018-03-04T19:41:05.390Z,96871.60
2018-03-04T19:43:33.754Z,96880.50
2018-03-04T19:46:02.083Z,96874.53
2018-03-04T19:48:30.445Z,96884.63
2018-03-04T19:50:58.807Z,96891.97
2018-03-04T19:53:27.141Z,96889.00
2018-03-04T19:55:55.517Z,96896.34
2018-03-04T19:58:23.986Z,96894.48
2018-03-04T20:00:52.374Z,96900.09
2018-03-04T20:03:20.729Z,96901.20
2018-03-04T20:05:49.128Z,96907.15
2018-03-04T20:08:17.413Z,96914.52
2018-03-04T20:10:45.774Z,96921.91
2018-03-04T20:13:14.429Z,96920.88
2018-03-04T20:15:42.987Z,96927.34
2018-03-04T20:18:11.614Z,96931.08
2018-03-04T20:20:39.952Z,96931.80
2018-03-04T20:23:08.249Z,96932.62
2018-03-04T20:25:36.584Z,96934.64
2018-03-04T20:28:04.875Z,96925.66
2018-03-04T20:30:33.308Z,96933.08
2018-03-04T20:33:01.593Z,96931.33
2018-03-04T20:35:29.921Z,96936.93
2018-03-04T20:37:58.742Z,96936.08
2018-03-04T20:40:27.020Z,96938.17
2018-03-04T20:42:55.378Z,96941.56
2018-03-04T20:45:23.628Z,96947.53
2018-03-04T20:47:51.946Z,96954.38
2018-03-04T20:50:20.249Z,96959.70
2018-03-04T20:52:51.161Z,96960.70
2018-03-04T20:55:19.422Z,96959.13
2018-03-04T20:57:47.725Z,96953.46
2018-03-04T21:00:16.016Z,96942.61
2018-03-04T21:02:44.405Z,96952.11
2018-03-04T21:05:12.685Z,96943.05
2018-03-04T21:07:40.976Z,96936.08
2018-03-04T21:10:09.298Z,96927.98
2018-03-04T21:12:37.617Z,96923.81
2018-03-04T21:15:06.876Z,96939.19
2018-03-04T21:17:35.175Z,96951.87
2018-03-04T21:20:03.770Z,96954.38
2018-03-04T21:22:32.061Z,96957.66
2018-03-04T21:25:00.339Z,96967.44
2018-03-04T21:27:28.665Z,96969.41
2018-03-04T21:29:58.490Z,96978.19
2018-03-04T21:32:26.782Z,96985.98
2018-03-04T21:34:55.066Z,96982.33
2018-03-04T21:37:23.342Z,96989.78
2018-03-04T21:39:51.607Z,96990.22
2018-03-04T21:42:19.907Z,96999.27
2018-03-04T21:44:48.168Z,97009.12
2018-03-04T21:47:17.086Z,97006.11
2018-03-04T21:49:45.787Z,97009.74
2018-03-04T21:52:14.096Z,97020.31
2018-03-04T21:54:42.457Z,97011.80
2018-03-04T21:57:10.769Z,97006.03
2018-03-04T21:59:39.133Z,97014.91
2018-03-04T22:02:07.430Z,97039.63
2018-03-04T22:04:35.752Z,97035.84
2018-03-04T22:07:04.120Z,97036.16
2018-03-04T22:09:32.389Z,97035.91
2018-03-04T22:12:00.646Z,97042.59
2018-03-04T22:14:28.927Z,97044.14
2018-03-04T22:16:57.207Z,97046.59
2018-03-04T22:19:25.545Z,97042.23
2018-03-04T22:21:53.754Z,97049.56
2018-03-04T22:24:22.117Z,97044.31
2018-03-04T22:26:50.387Z,97046.33
2018-03-04T22:29:18.784Z,97051.37
2018-03-04T22:31:47.127Z,97056.26
2018-03-04T22:34:15.371Z,97060.42
2018-03-04T22:36:43.691Z,97058.52
2018-03-04T22:39:12.077Z,97062.20
2018-03-04T22:41:40.359Z,97076.30
2018-03-04T22:44:08.654Z,97078.45
2018-03-04T22:46:36.949Z,97074.40
2018-03-04T22:49:05.779Z,97078.16
2018-03-04T22:51:34.116Z,97072.55
2018-03-04T22:54:02.376Z,97083.20
2018-03-04T22:56:30.678Z,97088.98
2018-03-04T22:58:58.961Z,97070.33
2018-03-04T23:01:27.751Z,97095.95
2018-03-04T23:03:56.143Z,97102.66
2018-03-04T23:06:24.412Z,97110.47
2018-03-04T23:08:52.697Z,97114.72
2018-03-04T23:11:21.077Z,97113.01
2018-03-04T23:13:49.909Z,97110.15
2018-03-04T23:16:18.223Z,97109.48
2018-03-04T23:18:53.432Z,97108.47
2018-03-04T23:21:21.698Z,97104.11
2018-03-04T23:23:49.962Z,97115.69
2018-03-04T23:26:18.260Z,97108.95
2018-03-04T23:28:46.505Z,97103.59
2018-03-04T23:31:14.805Z,97116.52
2018-03-04T23:33:43.083Z,97118.95
2018-03-04T23:36:11.369Z,97127.13
2018-03-04T23:38:39.647Z,97119.80
2018-03-04T23:41:07.924Z,97127.09
2018-03-04T23:43:36.195Z,97135.88
2018-03-04T23:46:04.479Z,97140.94
2018-03-04T23:48:32.771Z,97145.27
2018-03-04T23:51:01.071Z,97140.59
2018-03-04T23:53:29.358Z,97139.13
2018-03-04T23:55:57.611Z,97138.30
2018-03-04T23:58:26.559Z,97135.45
